LKLT weather

Letňany Airport
Letňany, Prague (capital city), Czechia

Public forecast

Using degrees Celsius for public forecast. Weather courtesy of forecast.io.

METAR (pilot weather report)

Closest report is Kbely Air Base, 0.9 nm (1.7 km) SE. Retrieved 2019/05/21 02:00 UTC (58 minutes ago):

LKKB 210200Z 09006KT CAVOK 10/09 Q1002

TAF (pilot weather forecast)

Forecast is more than 12 hours old.

Closest forecast is Kbely Air Base, 0.9 nm (1.7 km) SE. Retrieved 2019/05/20 00:00 UTC (1 day ago):

TAF LKKB 202300Z 2100/2200 12006KT CAVOK BECMG 2102/2104 5000 BR SCT008 BECMG 2105/2107 7000 BKN020 BECMG 2107/2109 9999 BKN035 BECMG 2112/2114 03006KT TEMPO 2112/2118 5000 SHRA BKN020TCU BECMG 2118/2120 34006KT CAVOK